Time;durP1;ratioP1;P1;durP2;ratioP2;P2;SDS_P1;SDS_P2;PMS_P1;PMS_P2;Temp;Humidity;BMP_temperature;BMP_pressure;BME280_temperature;BME280_humidity;BME280_pressure;Samples;Min_cycle;Max_cycle;Signal;HPM_P1;HPM_P2
2023/01/04 00:01:09;;;;;;;51.28;32.97;;;13.10;96.50;;;;;;6339792;22;20481;-77
2023/01/04 00:03:34;;;;;;;53.95;31.67;;;13.10;96.50;;;;;;6311960;22;20006;-77
2023/01/04 00:06:02;;;;;;;57.20;32.70;;;13.10;96.50;;;;;;6339699;22;20003;-77
2023/01/04 00:08:29;;;;;;;52.20;32.83;;;13.10;96.50;;;;;;6339870;22;20002;-78
2023/01/04 00:11:02;;;;;;;56.72;34.75;;;13.10;96.50;;;;;;6338831;22;20007;-79
2023/01/04 00:13:29;;;;;;;55.97;32.92;;;13.10;96.50;;;;;;6339255;22;20003;-79
2023/01/04 00:15:55;;;;;;;53.97;33.92;;;13.10;96.50;;;;;;6338538;22;20006;-79
2023/01/04 00:18:21;;;;;;;54.08;34.40;;;13.10;96.50;;;;;;6339843;22;19999;-78
2023/01/04 00:20:46;;;;;;;52.83;32.63;;;13.10;96.50;;;;;;6339517;22;20037;-79
2023/01/04 00:23:12;;;;;;;51.15;31.67;;;13.10;96.50;;;;;;6338252;22;19995;-78
2023/01/04 00:25:38;;;;;;;56.20;33.05;;;13.10;96.50;;;;;;6311465;22;20010;-78
2023/01/04 00:28:04;;;;;;;52.65;32.70;;;13.20;96.50;;;;;;6338870;22;20025;-78
2023/01/04 00:30:30;;;;;;;53.47;32.95;;;13.20;96.40;;;;;;6338975;22;20456;-78
2023/01/04 00:33:00;;;;;;;49.03;32.00;;;13.20;96.40;;;;;;6338890;22;20037;-78
2023/01/04 00:35:25;;;;;;;54.35;32.38;;;13.20;96.30;;;;;;6338445;22;20033;-79
2023/01/04 00:37:51;;;;;;;49.78;31.50;;;13.20;96.30;;;;;;6338443;22;19995;-78
2023/01/04 00:40:17;;;;;;;55.15;33.78;;;13.20;96.30;;;;;;6339567;22;20040;-79
2023/01/04 00:42:42;;;;;;;58.58;34.50;;;13.20;96.30;;;;;;6338507;22;20420;-79
2023/01/04 00:45:09;;;;;;;52.55;32.28;;;13.20;96.30;;;;;;6334230;22;20007;-79
2023/01/04 00:47:34;;;;;;;50.95;31.73;;;13.20;96.20;;;;;;6335924;22;19999;-79
2023/01/04 00:50:00;;;;;;;50.25;32.35;;;13.20;96.20;;;;;;6337559;22;20013;-77
2023/01/04 00:52:26;;;;;;;60.13;34.17;;;13.20;96.20;;;;;;6337492;22;20003;-78
2023/01/04 00:54:52;;;;;;;52.88;32.00;;;13.10;96.30;;;;;;6339277;22;20052;-78
2023/01/04 00:57:17;;;;;;;54.72;34.03;;;13.10;96.30;;;;;;6338444;22;20011;-78
2023/01/04 00:59:43;;;;;;;49.45;31.67;;;13.10;96.30;;;;;;6337116;22;20078;-78
2023/01/04 01:02:09;;;;;;;50.40;31.73;;;13.10;96.40;;;;;;6339069;22;20003;-78
2023/01/04 01:04:35;;;;;;;51.13;32.67;;;13.10;96.40;;;;;;6338134;22;20003;-79
2023/01/04 01:07:01;;;;;;;52.83;31.70;;;13.10;96.40;;;;;;6338941;22;20003;-79
2023/01/04 01:09:26;;;;;;;55.35;31.77;;;13.10;96.40;;;;;;6311088;22;20086;-78
2023/01/04 01:11:53;;;;;;;51.45;32.35;;;13.10;96.70;;;;;;6310353;22;20013;-79
2023/01/04 01:14:22;;;;;;;52.33;31.17;;;13.10;96.40;;;;;;6338590;22;20439;-79
2023/01/04 01:16:47;;;;;;;46.63;30.95;;;13.10;96.40;;;;;;6338901;22;20086;-79
2023/01/04 01:19:13;;;;;;;49.80;32.00;;;13.10;96.40;;;;;;6339236;22;20030;-78
2023/01/04 01:21:39;;;;;;;51.10;32.65;;;13.10;96.40;;;;;;6337558;22;19999;-77
2023/01/04 01:24:07;;;;;;;53.05;31.70;;;13.10;96.40;;;;;;6337950;22;20040;-79
2023/01/04 01:26:33;;;;;;;50.42;32.35;;;13.10;96.40;;;;;;6337625;22;20006;-78
2023/01/04 01:28:59;;;;;;;50.85;32.80;;;13.10;96.40;;;;;;6337998;22;20070;-79
2023/01/04 01:31:26;;;;;;;47.35;30.52;;;13.10;96.40;;;;;;6338609;22;19999;-79
2023/01/04 01:33:54;;;;;;;52.70;32.03;;;13.10;96.40;;;;;;6337721;22;20045;-79
2023/01/04 01:36:22;;;;;;;51.00;32.25;;;13.10;96.40;;;;;;6338084;22;20068;-79
2023/01/04 01:38:49;;;;;;;51.00;32.65;;;13.10;96.40;;;;;;6337989;22;20002;-80
2023/01/04 01:41:29;;;;;;;53.58;33.67;;;13.10;96.40;;;;;;6338746;22;19995;-80
2023/01/04 01:43:56;;;;;;;;;;;13.10;96.40;;;;;;6310696;22;20009;-80
2023/01/04 01:46:43;;;;;;;46.10;30.35;;;13.10;96.40;;;;;;6337614;22;19911;-80
2023/01/04 01:49:23;;;;;;;54.28;32.88;;;13.00;96.40;;;;;;6310817;22;20065;-80
2023/01/04 01:51:51;;;;;;;50.97;32.35;;;13.10;96.50;;;;;;6338323;22;20022;-80
2023/01/04 01:54:28;;;;;;;48.20;31.60;;;13.00;96.50;;;;;;6337717;22;20309;-80
2023/01/04 01:56:56;;;;;;;52.78;32.22;;;13.00;96.50;;;;;;6338523;22;20014;-80
2023/01/04 01:59:23;;;;;;;47.28;31.48;;;13.10;96.50;;;;;;6338505;22;20429;-80
2023/01/04 02:01:49;;;;;;;54.22;32.13;;;13.10;96.50;;;;;;6339116;22;20118;-80
2023/01/04 02:04:15;;;;;;;55.60;34.53;;;13.00;96.50;;;;;;6338451;22;20047;-80
2023/01/04 02:06:47;;;;;;;52.67;32.22;;;13.10;96.50;;;;;;6338876;22;20003;-79
2023/01/04 02:09:14;;;;;;;49.20;30.92;;;13.10;96.50;;;;;;6338562;22;20009;-79
2023/01/04 02:11:40;;;;;;;54.60;33.30;;;13.00;96.50;;;;;;6338851;22;19999;-79
2023/01/04 02:17:21;;;;;;;55.05;32.45;;;13.10;96.60;;;;;;6338940;22;20316;-79
2023/01/04 02:20:18;;;;;;;48.10;31.70;;;13.10;96.60;;;;;;6338058;22;20097;-79
2023/01/04 02:23:03;;;;;;;53.00;31.98;;;13.10;96.60;;;;;;6337906;22;20076;-79
2023/01/04 02:26:06;;;;;;;50.35;30.90;;;13.10;96.60;;;;;;6337802;22;20006;-80
2023/01/04 02:28:58;;;;;;;50.30;32.35;;;13.10;96.50;;;;;;6338503;22;20029;-80
2023/01/04 02:31:40;;;;;;;53.38;33.08;;;13.00;96.50;;;;;;6337632;22;20076;-81
2023/01/04 02:34:24;;;;;;;51.58;31.02;;;12.90;96.60;;;;;;6337786;22;19999;-81
2023/01/04 02:36:53;;;;;;;53.45;31.13;;;12.90;96.60;;;;;;6338764;22;20003;-78
2023/01/04 02:39:43;;;;;;;49.78;31.58;;;12.90;96.70;;;;;;6339171;22;20007;-79
2023/01/04 02:44:51;;;;;;;53.28;34.80;;;12.90;96.70;;;;;;6340157;22;19998;-78
2023/01/04 02:45:20;;;;;;;51.97;31.63;;;12.80;96.80;;;;;;6339501;22;20011;-79
2023/01/04 02:50:36;;;;;;;58.13;33.60;;;12.80;96.90;;;;;;6339778;22;20097;-79
2023/01/04 02:53:01;;;;;;;47.15;30.88;;;12.80;96.90;;;;;;6339340;22;20009;-79
2023/01/04 02:55:39;;;;;;;48.72;30.90;;;12.80;97.00;;;;;;6339891;22;20085;-79
2023/01/04 02:58:31;;;;;;;49.45;31.15;;;12.80;96.90;;;;;;6339713;22;20003;-80
2023/01/04 03:07:16;;;;;;;46.30;29.77;;;12.80;96.90;;;;;;6340352;22;20013;-80
2023/01/04 03:09:46;;;;;;;45.92;31.25;;;12.80;97.00;;;;;;6339938;22;20026;-80
2023/01/04 03:12:31;;;;;;;51.55;32.03;;;12.80;96.90;;;;;;6340173;22;19999;-79
2023/01/04 03:15:16;;;;;;;48.10;28.85;;;12.90;96.90;;;;;;6315699;22;20007;-79
2023/01/04 03:17:51;;;;;;;47.78;30.33;;;12.90;96.90;;;;;;6339503;22;20025;-78
2023/01/04 03:20:19;;;;;;;46.10;30.35;;;12.90;96.90;;;;;;6311863;22;20432;-77
2023/01/04 03:37:06;;;;;;;45.35;29.33;;;12.90;96.90;;;;;;6338919;22;20017;-78
2023/01/04 03:48:59;;;;;;;47.97;29.52;;;12.90;96.70;;;;;;6338730;22;20101;-79
2023/01/04 03:51:32;;;;;;;47.28;29.73;;;12.80;96.70;;;;;;6339074;22;20074;-79
2023/01/04 03:54:03;;;;;;;42.58;27.98;;;12.80;96.70;;;;;;6339081;22;19999;-79
2023/01/04 03:56:31;;;;;;;46.70;30.58;;;12.80;96.90;;;;;;6338442;22;20006;-78
2023/01/04 03:58:58;;;;;;;43.97;29.13;;;12.80;96.90;;;;;;6338813;22;20073;-79
2023/01/04 04:01:25;;;;;;;49.28;30.10;;;12.80;96.80;;;;;;6338081;22;20005;-78
2023/01/04 04:09:20;;;;;;;45.38;28.20;;;12.90;96.80;;;;;;6339326;22;20028;-78
2023/01/04 04:11:45;;;;;;;48.08;30.88;;;12.80;96.80;;;;;;6338683;22;20414;-77
2023/01/04 04:14:11;;;;;;;45.13;29.15;;;12.80;96.70;;;;;;6338844;22;20014;-77
2023/01/04 04:16:37;;;;;;;40.63;27.35;;;12.80;96.70;;;;;;6338911;22;20006;-78
2023/01/04 04:19:03;;;;;;;41.70;27.40;;;12.80;96.70;;;;;;6339285;22;20314;-78
2023/01/04 04:21:29;;;;;;;42.53;28.02;;;12.80;96.80;;;;;;6339561;22;19994;-78
2023/01/04 04:23:55;;;;;;;38.47;25.80;;;12.80;96.80;;;;;;6338638;22;19994;-78
2023/01/04 04:26:22;;;;;;;43.03;28.40;;;12.80;96.80;;;;;;6338632;22;20006;-78
2023/01/04 04:28:48;;;;;;;42.45;28.17;;;12.80;96.70;;;;;;6339096;22;20384;-79
2023/01/04 04:31:13;;;;;;;43.42;28.20;;;12.80;96.70;;;;;;6339084;22;19999;-79
2023/01/04 04:33:39;;;;;;;43.63;28.50;;;12.80;96.70;;;;;;6338706;22;20025;-79
2023/01/04 04:36:06;;;;;;;39.42;27.90;;;12.80;96.70;;;;;;6338437;22;20006;-79
2023/01/04 04:38:32;;;;;;;39.38;25.30;;;12.80;96.60;;;;;;6311445;22;20093;-79
2023/01/04 04:43:42;;;;;;;37.47;26.13;;;12.80;96.60;;;;;;6338928;22;20379;-79
2023/01/04 04:46:07;;;;;;;38.67;26.63;;;12.80;96.60;;;;;;6338691;22;20007;-79
2023/01/04 04:48:33;;;;;;;37.72;26.08;;;12.80;96.50;;;;;;6338555;22;20031;-79
2023/01/04 04:50:59;;;;;;;38.78;25.33;;;12.70;96.50;;;;;;6338924;22;20306;-78
2023/01/04 04:53:25;;;;;;;42.53;24.75;;;12.70;96.50;;;;;;6338945;22;19999;-77
2023/01/04 04:55:52;;;;;;;33.95;24.52;;;12.70;96.50;;;;;;6338361;22;20006;-77
2023/01/04 04:58:17;;;;;;;35.95;25.05;;;12.70;96.50;;;;;;6338781;22;20011;-79
2023/01/04 05:00:43;;;;;;;38.03;26.40;;;12.70;96.40;;;;;;6337432;22;20333;-79
2023/01/04 05:03:09;;;;;;;36.13;24.02;;;12.70;96.40;;;;;;6338769;22;20489;-79
2023/01/04 05:05:34;;;;;;;34.97;23.80;;;12.70;96.40;;;;;;6339051;22;19998;-79
2023/01/04 05:08:00;;;;;;;33.75;23.95;;;12.70;96.30;;;;;;6338617;22;20055;-79
2023/01/04 05:10:26;;;;;;;34.88;24.10;;;12.70;96.20;;;;;;6338682;22;19994;-76
2023/01/04 05:13:01;;;;;;;32.33;22.33;;;12.70;96.30;;;;;;6338399;22;20006;-76
2023/01/04 05:15:28;;;;;;;33.63;24.13;;;12.70;96.30;;;;;;6311479;22;20003;-76
2023/01/04 05:17:53;;;;;;;34.95;23.45;;;12.70;96.40;;;;;;6311068;22;20013;-75
2023/01/04 05:20:19;;;;;;;30.60;22.15;;;12.70;96.30;;;;;;6338796;22;20070;-76
2023/01/04 05:22:45;;;;;;;32.22;22.48;;;12.70;96.10;;;;;;6338575;22;20326;-75
2023/01/04 05:25:11;;;;;;;30.95;21.77;;;12.70;96.20;;;;;;6337711;22;20489;-73
2023/01/04 05:27:36;;;;;;;29.35;21.63;;;12.70;96.20;;;;;;6309905;22;20014;-73
2023/01/04 05:32:47;;;;;;;30.98;20.17;;;12.60;96.10;;;;;;6338752;22;20030;-73
2023/01/04 05:35:13;;;;;;;31.23;20.00;;;12.60;96.00;;;;;;6338871;22;20401;-73
2023/01/04 05:37:39;;;;;;;28.60;19.20;;;12.60;95.90;;;;;;6337132;22;20052;-73
2023/01/04 05:40:05;;;;;;;26.95;20.05;;;12.60;95.90;;;;;;6337941;22;20007;-75
2023/01/04 05:42:30;;;;;;;26.63;19.20;;;12.60;95.90;;;;;;6337864;22;20373;-76
2023/01/04 05:44:58;;;;;;;26.85;19.20;;;12.60;95.90;;;;;;6338445;22;20033;-76
2023/01/04 05:47:24;;;;;;;25.02;17.85;;;12.60;95.90;;;;;;6337849;22;20070;-75
2023/01/04 05:49:51;;;;;;;23.73;17.63;;;12.60;95.70;;;;;;6338189;22;20077;-75
2023/01/04 05:52:16;;;;;;;28.52;19.40;;;12.60;95.80;;;;;;6338202;22;20003;-75
2023/01/04 05:54:42;;;;;;;23.88;17.33;;;12.60;95.80;;;;;;6339102;22;20010;-75
2023/01/04 05:57:08;;;;;;;24.80;18.08;;;12.60;95.70;;;;;;6338679;22;20007;-75
2023/01/04 05:59:34;;;;;;;26.45;18.70;;;12.60;95.60;;;;;;6310284;22;20003;-75
2023/01/04 06:02:00;;;;;;;22.08;16.27;;;12.60;95.60;;;;;;6338358;22;19999;-74
2023/01/04 06:04:25;;;;;;;26.35;16.77;;;12.60;95.50;;;;;;6338889;22;20002;-74
2023/01/04 06:06:51;;;;;;;26.17;17.17;;;12.60;95.50;;;;;;6339180;22;20003;-75
2023/01/04 06:09:17;;;;;;;24.65;16.70;;;12.60;95.50;;;;;;6338931;22;20052;-75
2023/01/04 06:11:43;;;;;;;26.95;17.45;;;12.60;95.40;;;;;;6337711;22;20003;-74
2023/01/04 06:14:09;;;;;;;25.25;17.55;;;12.60;95.50;;;;;;6338121;22;20469;-74
2023/01/04 06:16:36;;;;;;;24.73;17.23;;;12.60;95.30;;;;;;6338771;22;19998;-75
2023/01/04 06:19:02;;;;;;;23.63;16.73;;;12.60;95.40;;;;;;6338682;22;19995;-74
2023/01/04 06:21:28;;;;;;;23.75;16.95;;;12.60;95.40;;;;;;6336927;22;20317;-74
2023/01/04 06:23:53;;;;;;;23.30;17.50;;;12.60;95.40;;;;;;6337340;22;20006;-75
2023/01/04 06:26:20;;;;;;;24.52;16.67;;;12.60;95.30;;;;;;6337967;22;20371;-75
2023/01/04 06:28:46;;;;;;;23.35;17.42;;;12.60;95.30;;;;;;6309748;22;20006;-75
2023/01/04 06:31:11;;;;;;;21.77;16.25;;;12.60;95.10;;;;;;6310525;22;20042;-74
2023/01/04 06:33:37;;;;;;;25.25;17.35;;;12.60;95.20;;;;;;6336966;22;20063;-72
2023/01/04 06:36:04;;;;;;;25.33;17.85;;;12.50;95.20;;;;;;6336967;22;20002;-73
2023/01/04 06:38:30;;;;;;;24.38;17.38;;;12.40;95.10;;;;;;6337646;22;20005;-73
2023/01/04 06:40:56;;;;;;;20.60;16.35;;;12.40;95.40;;;;;;6309742;22;19999;-73
2023/01/04 06:43:22;;;;;;;22.45;17.23;;;12.50;95.30;;;;;;6337991;22;20070;-73
2023/01/04 06:45:47;;;;;;;24.17;16.15;;;12.40;95.20;;;;;;6337540;22;20085;-73
2023/01/04 06:48:13;;;;;;;23.15;17.00;;;12.50;95.20;;;;;;6336975;22;19995;-73
2023/01/04 06:50:39;;;;;;;21.90;16.63;;;12.40;95.00;;;;;;6336974;22;19999;-73
2023/01/04 06:53:05;;;;;;;22.02;16.75;;;12.50;95.10;;;;;;6335036;22;20009;-73
2023/01/04 06:55:30;;;;;;;22.00;16.55;;;12.50;95.10;;;;;;6336253;22;19999;-73
2023/01/04 06:57:56;;;;;;;20.20;15.38;;;12.40;94.90;;;;;;6335688;22;20003;-73
2023/01/04 07:00:22;;;;;;;24.60;16.67;;;12.40;95.00;;;;;;6337338;22;20009;-73
2023/01/04 07:02:48;;;;;;;19.40;14.88;;;12.40;95.00;;;;;;6337661;22;20023;-74
2023/01/04 07:05:14;;;;;;;18.90;14.45;;;12.40;94.90;;;;;;6338142;22;20334;-73
2023/01/04 07:07:39;;;;;;;22.70;15.23;;;12.40;94.90;;;;;;6309847;22;20013;-73
2023/01/04 07:10:06;;;;;;;21.27;14.95;;;12.30;94.90;;;;;;6337698;22;19998;-73
2023/01/04 07:12:32;;;;;;;22.05;14.60;;;12.30;94.90;;;;;;6337647;22;20027;-73
2023/01/04 07:14:58;;;;;;;18.25;13.68;;;12.30;94.90;;;;;;6338559;22;20405;-74
2023/01/04 07:17:25;;;;;;;17.33;13.45;;;12.30;94.80;;;;;;6337155;22;20010;-74
2023/01/04 07:19:51;;;;;;;17.38;13.52;;;12.30;94.70;;;;;;6337872;22;19998;-74
2023/01/04 07:22:17;;;;;;;17.63;12.65;;;12.20;94.70;;;;;;6337830;22;20021;-75
2023/01/04 07:24:42;;;;;;;20.05;13.18;;;12.20;94.50;;;;;;6338407;22;19995;-76
2023/01/04 07:27:10;;;;;;;16.85;12.55;;;12.20;94.60;;;;;;6336954;22;20413;-75
2023/01/04 07:29:35;;;;;;;16.52;11.50;;;12.20;94.70;;;;;;6338745;22;19991;-73
2023/01/04 07:32:01;;;;;;;17.80;12.98;;;12.20;94.80;;;;;;6339268;22;20079;-79
2023/01/04 07:34:28;;;;;;;16.65;11.35;;;12.30;94.70;;;;;;6340039;22;20402;-79
2023/01/04 07:36:54;;;;;;;13.93;11.02;;;12.40;94.50;;;;;;6339174;22;20002;-80
2023/01/04 07:39:20;;;;;;;16.67;12.38;;;12.40;94.30;;;;;;6330300;22;20009;-82
2023/01/04 07:41:47;;;;;;;15.27;11.65;;;12.40;94.30;;;;;;6336435;22;20085;-82
2023/01/04 07:44:14;;;;;;;17.13;11.98;;;12.50;94.30;;;;;;6338965;22;20366;-86
2023/01/04 07:46:41;;;;;;;15.23;11.43;;;12.50;93.90;;;;;;6334959;22;20018;-77
2023/01/04 07:49:10;;;;;;;14.60;11.20;;;12.40;94.00;;;;;;6339615;22;19999;-77
2023/01/04 07:51:36;;;;;;;19.83;11.75;;;12.40;94.00;;;;;;6339090;22;20034;-77
2023/01/04 07:54:01;;;;;;;16.77;11.13;;;12.40;94.00;;;;;;6338876;22;19998;-77
2023/01/04 07:56:27;;;;;;;14.32;10.57;;;12.40;94.00;;;;;;6338765;22;20007;-77
2023/01/04 07:58:57;;;;;;;16.65;12.05;;;12.40;93.80;;;;;;6338100;22;20078;-78
2023/01/04 08:01:25;;;;;;;13.07;10.48;;;12.40;93.50;;;;;;6338042;22;19999;-79
2023/01/04 08:03:52;;;;;;;16.20;11.02;;;12.30;93.70;;;;;;6338513;22;20003;-78
2023/01/04 08:06:19;;;;;;;15.48;10.95;;;12.30;93.70;;;;;;6337283;22;20034;-82
2023/01/04 08:08:44;;;;;;;14.07;10.60;;;12.30;93.60;;;;;;6338605;22;20006;-77
2023/01/04 08:11:13;;;;;;;14.20;11.73;;;12.30;93.60;;;;;;6337452;22;20428;-77
2023/01/04 08:13:39;;;;;;;15.70;11.48;;;12.30;93.70;;;;;;6338493;22;20006;-77
2023/01/04 08:16:06;;;;;;;19.95;12.20;;;12.30;93.60;;;;;;6338881;22;20004;-77
2023/01/04 08:18:32;;;;;;;17.67;12.40;;;12.30;93.60;;;;;;6338421;22;20077;-73
2023/01/04 08:21:03;;;;;;;12.77;10.13;;;12.30;93.50;;;;;;6338764;22;20027;-73
2023/01/04 08:23:29;;;;;;;15.43;10.80;;;12.30;93.60;;;;;;6339229;22;19999;-72
2023/01/04 08:25:55;;;;;;;15.40;10.23;;;12.30;93.20;;;;;;6339324;22;20041;-71
2023/01/04 08:28:20;;;;;;;12.15;9.70;;;12.30;93.30;;;;;;6339356;22;19998;-70
2023/01/04 08:30:46;;;;;;;11.13;8.88;;;12.30;93.40;;;;;;6339382;22;20003;-70
2023/01/04 08:33:13;;;;;;;13.77;10.10;;;12.30;93.30;;;;;;6338920;22;20097;-70
2023/01/04 08:35:39;;;;;;;11.95;8.68;;;12.30;93.10;;;;;;6338357;22;20433;-70
2023/01/04 08:38:04;;;;;;;14.43;10.98;;;12.40;92.90;;;;;;6338730;22;20018;-70
2023/01/04 08:40:30;;;;;;;12.50;9.32;;;12.30;92.40;;;;;;6339513;22;20414;-72
2023/01/04 08:42:55;;;;;;;12.68;9.60;;;12.30;92.50;;;;;;6339753;22;20002;-71
2023/01/04 08:45:21;;;;;;;11.57;8.40;;;12.20;92.40;;;;;;6338776;22;20082;-71
2023/01/04 08:47:47;;;;;;;13.07;9.60;;;12.20;92.60;;;;;;6339264;22;20352;-71
2023/01/04 08:50:15;;;;;;;11.32;8.73;;;12.20;92.50;;;;;;6338247;22;19999;-71
2023/01/04 08:52:41;;;;;;;11.18;8.38;;;12.20;92.20;;;;;;6337219;22;20085;-71
2023/01/04 08:55:08;;;;;;;14.45;9.63;;;12.20;92.40;;;;;;6339189;22;20006;-71
2023/01/04 08:57:34;;;;;;;11.90;9.00;;;12.20;92.40;;;;;;6339230;22;20052;-71
2023/01/04 09:00:00;;;;;;;12.20;8.82;;;12.30;92.50;;;;;;6338839;22;20070;-72
2023/01/04 09:02:27;;;;;;;11.90;8.52;;;12.40;92.50;;;;;;6339348;22;20412;-71
2023/01/04 09:04:58;;;;;;;11.20;8.07;;;12.50;92.30;;;;;;6338729;22;20430;-71
2023/01/04 09:07:27;;;;;;;14.40;8.48;;;12.50;92.20;;;;;;6339200;22;20003;-71
2023/01/04 09:09:52;;;;;;;16.70;9.05;;;12.50;91.60;;;;;;6339152;22;20002;-71
2023/01/04 09:12:19;;;;;;;12.52;8.98;;;12.50;91.90;;;;;;6339295;22;20037;-71
2023/01/04 09:14:45;;;;;;;10.70;7.68;;;12.50;91.40;;;;;;6339389;22;20003;-71
2023/01/04 09:17:11;;;;;;;10.85;8.75;;;12.50;91.70;;;;;;6338985;22;20346;-71
2023/01/04 09:19:38;;;;;;;18.92;14.32;;;12.50;91.40;;;;;;6338329;22;20047;-71
2023/01/04 09:22:04;;;;;;;92.15;65.28;;;12.60;91.70;;;;;;6339109;22;19991;-71
2023/01/04 09:24:32;;;;;;;80.90;58.38;;;12.60;91.30;;;;;;6338597;22;20047;-72
2023/01/04 09:26:58;;;;;;;29.90;22.23;;;12.70;91.70;;;;;;6338480;22;20003;-72
2023/01/04 09:29:24;;;;;;;14.40;10.93;;;12.80;91.80;;;;;;6339232;22;20009;-72
2023/01/04 09:31:50;;;;;;;15.02;8.82;;;12.90;91.60;;;;;;6338899;22;19998;-72
2023/01/04 09:34:16;;;;;;;12.75;8.90;;;13.00;91.40;;;;;;6337480;22;20006;-73
2023/01/04 09:36:44;;;;;;;10.57;8.45;;;13.00;91.30;;;;;;6337657;22;20003;-76
2023/01/04 09:39:09;;;;;;;12.10;8.73;;;13.10;90.90;;;;;;6338972;22;20022;-77
2023/01/04 09:41:50;;;;;;;12.18;9.27;;;13.10;90.90;;;;;;6338084;22;20405;-77
2023/01/04 09:44:25;;;;;;;;;;;13.10;90.30;;;;;;6338432;22;20463;-76
2023/01/04 09:46:59;;;;;;;16.55;8.55;;;13.20;90.70;;;;;;6338269;22;19910;-76
2023/01/04 09:49:35;;;;;;;11.38;8.57;;;13.20;90.60;;;;;;6338644;22;20077;-77
2023/01/04 09:52:10;;;;;;;13.30;9.02;;;13.30;90.50;;;;;;6338799;22;20104;-77
2023/01/04 09:54:54;;;;;;;11.98;8.10;;;13.30;90.10;;;;;;6338836;22;20032;-77
2023/01/04 09:57:41;;;;;;;10.20;8.13;;;13.30;90.30;;;;;;6339245;22;20004;-77
2023/01/04 10:00:23;;;;;;;11.55;8.13;;;13.30;90.30;;;;;;6336589;22;20013;-78
2023/01/04 10:02:59;;;;;;;12.38;8.50;;;13.50;90.40;;;;;;6338988;22;20408;-78
2023/01/04 10:05:29;;;;;;;11.73;9.05;;;13.60;90.60;;;;;;6338020;22;20019;-77
2023/01/04 10:07:55;;;;;;;9.38;7.90;;;13.60;90.20;;;;;;6310933;22;20408;-76
2023/01/04 10:10:40;;;;;;;12.30;8.65;;;13.70;90.20;;;;;;6339147;22;20044;-78
2023/01/04 10:13:50;;;;;;;14.15;8.90;;;13.80;90.00;;;;;;6338636;22;20074;-77
2023/01/04 10:16:34;;;;;;;;;;;13.90;89.90;;;;;;6290736;22;20056;-77
2023/01/04 10:19:30;;;;;;;11.50;8.18;;;14.00;88.60;;;;;;6337980;22;19913;-77
2023/01/04 10:22:07;;;;;;;11.20;8.43;;;14.10;88.40;;;;;;6338236;22;20006;-77
2023/01/04 10:24:57;;;;;;;11.27;8.30;;;14.10;88.30;;;;;;6333019;22;20356;-77
2023/01/04 10:28:37;;;;;;;9.75;7.75;;;14.10;89.40;;;;;;6280324;22;20007;-78
2023/01/04 10:31:13;;;;;;;11.88;8.85;;;14.30;89.50;;;;;;6125369;23;20121;-78
2023/01/04 10:33:56;;;;;;;9.60;7.60;;;14.50;89.50;;;;;;6175021;23;20005;-72
2023/01/04 10:36:30;;;;;;;13.15;7.97;;;14.70;89.00;;;;;;6280510;22;20010;-71
2023/01/04 10:39:14;;;;;;;9.73;8.07;;;14.80;88.30;;;;;;6338707;22;20048;-71
2023/01/04 10:41:47;;;;;;;12.90;9.95;;;15.00;88.10;;;;;;6311125;22;20003;-78
2023/01/04 10:44:25;;;;;;;11.65;8.60;;;15.20;85.50;;;;;;6336038;22;19999;-78
2023/01/04 10:47:14;;;;;;;9.30;7.35;;;15.30;86.60;;;;;;6339571;22;20088;-77
2023/01/04 10:49:42;;;;;;;12.05;8.65;;;15.50;87.00;;;;;;6338684;22;20006;-72
2023/01/04 10:52:17;;;;;;;10.25;8.75;;;15.60;84.10;;;;;;6306878;22;20023;-71
2023/01/04 10:54:56;;;;;;;14.90;10.00;;;15.70;85.70;;;;;;6338359;22;20286;-71
2023/01/04 10:57:24;;;;;;;10.63;8.47;;;15.80;82.80;;;;;;6338467;22;20413;-72
2023/01/04 10:59:59;;;;;;;11.27;8.60;;;15.90;84.90;;;;;;6339595;22;19999;-71
2023/01/04 11:02:25;;;;;;;11.23;8.20;;;16.10;84.10;;;;;;6340557;22;20439;-72
2023/01/04 11:05:22;;;;;;;11.88;9.10;;;16.10;82.50;;;;;;6339210;22;19995;-77
2023/01/04 11:08:06;;;;;;;11.55;8.73;;;16.20;81.70;;;;;;6339268;22;20007;-77
2023/01/04 11:10:56;;;;;;;11.40;9.00;;;16.20;83.70;;;;;;6340660;22;20079;-78
2023/01/04 11:13:23;;;;;;;13.77;8.98;;;16.50;84.60;;;;;;6339846;22;20003;-72
2023/01/04 11:15:50;;;;;;;12.70;9.60;;;16.60;83.20;;;;;;6339730;22;19999;-72
2023/01/04 11:18:16;;;;;;;12.40;10.15;;;16.70;83.20;;;;;;6340221;22;19995;-72
2023/01/04 11:20:42;;;;;;;14.02;10.90;;;16.80;83.60;;;;;;6340271;22;20433;-72
2023/01/04 11:23:19;;;;;;;16.48;11.40;;;16.90;81.60;;;;;;6340109;22;20006;-72
2023/01/04 11:25:58;;;;;;;13.38;10.05;;;17.00;82.00;;;;;;6339655;22;19999;-72
2023/01/04 11:28:46;;;;;;;18.95;13.30;;;17.10;82.20;;;;;;6340199;22;19999;-72
2023/01/04 11:31:28;;;;;;;15.57;10.95;;;17.20;79.80;;;;;;6312486;22;20378;-72
2023/01/04 11:34:00;;;;;;;13.68;10.82;;;17.20;81.80;;;;;;6339591;22;20376;-72
2023/01/04 11:36:37;;;;;;;17.15;13.90;;;17.40;82.30;;;;;;6339611;22;20045;-72
2023/01/04 11:39:07;;;;;;;13.63;11.13;;;17.50;79.10;;;;;;6339646;22;20413;-72
2023/01/04 11:41:32;;;;;;;15.88;12.30;;;17.70;82.10;;;;;;6338549;22;20048;-72
2023/01/04 11:44:02;;;;;;;18.00;13.98;;;17.80;81.80;;;;;;6339306;22;20368;-72
2023/01/04 11:46:29;;;;;;;12.20;10.90;;;18.10;80.90;;;;;;6339627;22;20083;-72
2023/01/04 11:48:55;;;;;;;14.93;12.63;;;18.50;80.50;;;;;;6339487;22;20031;-72
2023/01/04 11:51:35;;;;;;;13.45;11.98;;;19.00;79.40;;;;;;6339611;22;20002;-72
2023/01/04 11:54:14;;;;;;;11.73;10.52;;;19.80;77.10;;;;;;6336831;22;20424;-72
2023/01/04 11:57:07;;;;;;;12.60;11.15;;;20.50;74.40;;;;;;6336831;22;20002;-73
2023/01/04 11:59:33;;;;;;;14.70;12.15;;;21.40;73.30;;;;;;6337389;22;19999;-72
2023/01/04 12:02:16;;;;;;;13.90;12.38;;;22.30;69.70;;;;;;6337487;22;20486;-72
2023/01/04 12:04:42;;;;;;;13.63;12.20;;;22.90;65.80;;;;;;6307357;22;20090;-72
2023/01/04 12:07:29;;;;;;;12.18;10.90;;;23.20;66.40;;;;;;6337130;22;20421;-72
2023/01/04 12:09:55;;;;;;;12.55;11.25;;;23.50;64.80;;;;;;6337098;22;20003;-73
2023/01/04 12:12:24;;;;;;;12.75;11.35;;;23.90;60.80;;;;;;6337276;22;20519;-72
2023/01/04 12:14:50;;;;;;;13.40;11.05;;;24.00;62.80;;;;;;6337152;22;20522;-72
2023/01/04 12:17:38;;;;;;;12.57;10.40;;;24.40;61.90;;;;;;6336288;22;20448;-72
2023/01/04 12:20:12;;;;;;;12.82;10.60;;;24.50;59.00;;;;;;6336824;22;19998;-72
2023/01/04 12:22:39;;;;;;;12.20;10.65;;;24.60;59.90;;;;;;6337170;22;20092;-73
2023/01/04 12:25:28;;;;;;;549.90;491.67;;;24.80;59.80;;;;;;6309388;22;20443;-78
2023/01/04 12:27:54;;;;;;;72.38;64.18;;;25.00;59.10;;;;;;6314354;22;20305;-78
2023/01/04 12:30:45;;;;;;;23.30;19.63;;;25.20;58.30;;;;;;6337517;22;20001;-77
2023/01/04 12:33:29;;;;;;;21.92;18.40;;;25.30;58.70;;;;;;6326124;22;19999;-77
2023/01/04 12:35:58;;;;;;;13.75;11.05;;;25.50;57.30;;;;;;6337272;22;20030;-77
2023/01/04 12:38:53;;;;;;;10.70;9.60;;;25.60;56.80;;;;;;6336864;22;19999;-72
2023/01/04 12:41:20;;;;;;;10.88;9.77;;;25.60;56.50;;;;;;6325104;22;20098;-71
2023/01/04 12:43:48;;;;;;;12.93;11.50;;;25.70;56.00;;;;;;6336413;22;19999;-72
2023/01/04 12:49:42;;;;;;;11.60;10.20;;;25.20;55.30;;;;;;6336380;22;20060;-72
2023/01/04 12:52:08;;;;;;;15.93;11.82;;;24.60;56.60;;;;;;6336156;22;20009;-71
2023/01/04 12:54:56;;;;;;;11.93;10.27;;;24.20;57.20;;;;;;6336219;22;20082;-71
2023/01/04 12:57:30;;;;;;;26.55;17.65;;;23.90;57.60;;;;;;6336070;22;20020;-72
2023/01/04 13:00:00;;;;;;;17.80;13.05;;;23.70;58.30;;;;;;6336343;22;20459;-71
2023/01/04 13:02:30;;;;;;;12.25;10.77;;;23.50;59.20;;;;;;6335763;22;20073;-72
2023/01/04 13:05:00;;;;;;;12.90;11.63;;;23.50;59.60;;;;;;6333944;22;20003;-72
2023/01/04 13:07:38;;;;;;;12.63;9.80;;;23.50;58.60;;;;;;6336310;22;20006;-72
2023/01/04 13:10:29;;;;;;;12.32;9.98;;;23.50;59.50;;;;;;6335922;22;20007;-71
2023/01/04 13:13:00;;;;;;;13.85;9.93;;;23.50;59.40;;;;;;6336288;22;20002;-71
2023/01/04 13:16:01;;;;;;;14.68;11.82;;;23.50;59.20;;;;;;6335698;22;20002;-72
2023/01/04 13:18:56;;;;;;;10.88;9.45;;;23.40;59.20;;;;;;6251388;22;20016;-72
2023/01/04 13:21:33;;;;;;;11.75;9.20;;;23.40;58.90;;;;;;6336007;22;19999;-72
2023/01/04 13:24:19;;;;;;;9.70;8.25;;;23.30;58.20;;;;;;6335334;22;20549;-72
2023/01/04 13:26:47;;;;;;;10.98;8.40;;;23.20;58.40;;;;;;6336160;22;19999;-71
2023/01/04 13:29:18;;;;;;;10.65;9.05;;;23.10;58.30;;;;;;6335484;22;20022;-71
2023/01/04 13:31:46;;;;;;;11.05;8.65;;;22.80;58.50;;;;;;6336222;22;20034;-72
2023/01/04 13:34:30;;;;;;;10.20;8.10;;;22.40;58.90;;;;;;6338295;22;19998;-72
2023/01/04 13:37:14;;;;;;;9.98;8.68;;;21.90;59.70;;;;;;6338770;22;20002;-73
2023/01/04 13:39:45;;;;;;;10.73;8.40;;;21.30;60.80;;;;;;6337680;22;20066;-72